createdAt,value
2018-06-06T00:02:12.187Z,20.90
2018-06-06T00:04:40.362Z,21.00
2018-06-06T00:07:08.554Z,21.00
2018-06-06T00:09:36.749Z,20.90
2018-06-06T00:12:04.940Z,20.80
2018-06-06T00:14:33.097Z,20.60
2018-06-06T00:17:01.271Z,20.60
2018-06-06T00:19:29.448Z,20.70
2018-06-06T00:21:57.650Z,20.70
2018-06-06T00:24:25.845Z,20.60
2018-06-06T00:26:54.027Z,20.60
2018-06-06T00:29:22.197Z,20.60
2018-06-06T00:31:50.378Z,20.60
2018-06-06T00:34:18.542Z,20.60
2018-06-06T00:36:46.709Z,20.60
2018-06-06T00:39:14.870Z,20.60
2018-06-06T00:41:43.058Z,20.50
2018-06-06T00:44:11.242Z,20.40
2018-06-06T00:46:39.402Z,20.40
2018-06-06T00:49:07.605Z,20.40
2018-06-06T00:51:35.794Z,20.40
2018-06-06T00:54:04.357Z,20.40
2018-06-06T00:56:32.533Z,20.30
2018-06-06T00:59:00.711Z,20.30
2018-06-06T01:01:28.877Z,20.40
2018-06-06T01:03:57.047Z,20.40
2018-06-06T01:06:25.213Z,20.40
2018-06-06T01:08:53.394Z,20.30
2018-06-06T01:11:21.569Z,20.40
2018-06-06T01:13:49.736Z,20.40
2018-06-06T01:16:17.909Z,20.40
2018-06-06T01:18:46.129Z,20.50
2018-06-06T01:21:14.294Z,20.40
2018-06-06T01:23:42.549Z,20.40
2018-06-06T01:26:10.725Z,20.40
2018-06-06T01:28:38.883Z,20.20
2018-06-06T01:31:07.051Z,20.10
2018-06-06T01:33:35.241Z,20.00
2018-06-06T01:36:03.401Z,19.90
2018-06-06T01:38:31.589Z,19.90
2018-06-06T01:40:59.757Z,19.90
2018-06-06T01:43:27.910Z,19.90
2018-06-06T01:45:56.091Z,20.00
2018-06-06T01:48:24.248Z,20.00
2018-06-06T01:50:52.450Z,20.10
2018-06-06T01:53:20.602Z,20.00
2018-06-06T01:55:48.779Z,20.00
2018-06-06T01:58:16.937Z,19.90
2018-06-06T02:00:45.102Z,19.80
2018-06-06T02:03:13.237Z,19.80
2018-06-06T02:05:41.398Z,19.70
2018-06-06T02:08:09.565Z,19.70
2018-06-06T02:10:37.744Z,19.80
2018-06-06T02:13:05.913Z,19.80
2018-06-06T02:15:34.084Z,19.80
2018-06-06T02:18:02.272Z,19.70
2018-06-06T02:20:30.430Z,19.60
2018-06-06T02:22:58.590Z,19.60
2018-06-06T02:25:26.782Z,19.70
2018-06-06T02:27:54.937Z,19.60
2018-06-06T02:30:23.139Z,19.60
2018-06-06T02:32:51.290Z,19.60
2018-06-06T02:35:19.463Z,19.60
2018-06-06T02:37:47.639Z,19.50
2018-06-06T02:40:15.835Z,19.40
2018-06-06T02:42:43.996Z,19.40
2018-06-06T02:45:12.158Z,19.30
2018-06-06T02:47:40.335Z,19.20
2018-06-06T02:50:08.492Z,19.10
2018-06-06T02:52:36.693Z,19.10
2018-06-06T02:55:04.853Z,19.10
2018-06-06T02:57:33.022Z,19.20
2018-06-06T03:00:01.194Z,19.10
2018-06-06T03:02:29.409Z,19.10
2018-06-06T03:04:57.630Z,19.10
2018-06-06T03:07:25.821Z,19.20
2018-06-06T03:09:53.995Z,19.30
2018-06-06T03:12:22.159Z,19.20
2018-06-06T03:14:50.326Z,19.30
2018-06-06T03:17:18.489Z,19.30
2018-06-06T03:19:46.701Z,19.30
2018-06-06T03:22:14.869Z,19.10
2018-06-06T03:24:43.023Z,19.20
2018-06-06T03:27:11.170Z,19.10
2018-06-06T03:29:39.361Z,19.10
2018-06-06T03:32:07.605Z,19.00
2018-06-06T03:34:35.761Z,19.00
2018-06-06T03:39:38.376Z,18.80
2018-06-06T03:42:06.557Z,18.90
2018-06-06T03:44:34.730Z,19.10
2018-06-06T03:47:02.938Z,19.20
2018-06-06T03:49:31.133Z,19.20
2018-06-06T03:51:59.330Z,19.20
2018-06-06T03:54:27.585Z,19.30
2018-06-06T03:56:55.795Z,19.40
2018-06-06T03:59:23.990Z,19.30
2018-06-06T04:01:52.173Z,19.30
2018-06-06T04:04:20.398Z,19.30
2018-06-06T04:06:48.602Z,19.30
2018-06-06T04:09:16.789Z,19.20
2018-06-06T04:11:45.035Z,19.30
2018-06-06T04:14:13.217Z,19.20
2018-06-06T04:16:41.422Z,19.20
2018-06-06T04:19:09.674Z,19.20
2018-06-06T04:21:38.791Z,19.30
2018-06-06T04:24:06.973Z,19.20
2018-06-06T04:26:35.193Z,19.20
2018-06-06T04:29:03.393Z,19.20
2018-06-06T04:31:31.597Z,19.30
2018-06-06T04:33:59.810Z,19.30
2018-06-06T04:36:28.014Z,19.40
2018-06-06T04:38:56.197Z,19.40
2018-06-06T04:41:24.399Z,19.30
2018-06-06T04:43:52.609Z,19.20
2018-06-06T04:46:20.801Z,19.20
2018-06-06T04:48:48.976Z,19.20
2018-06-06T04:51:17.117Z,19.20
2018-06-06T04:53:45.290Z,19.40
2018-06-06T04:56:13.483Z,19.30
2018-06-06T04:58:41.666Z,19.30
2018-06-06T05:01:09.849Z,19.30
2018-06-06T05:03:38.156Z,19.40
2018-06-06T05:06:06.341Z,19.40
2018-06-06T05:08:34.513Z,19.60
2018-06-06T05:11:02.696Z,19.60
2018-06-06T05:13:30.860Z,19.90
2018-06-06T05:15:59.013Z,20.20
2018-06-06T05:18:27.201Z,20.50
2018-06-06T05:20:55.396Z,20.80
2018-06-06T05:23:23.574Z,21.30
2018-06-06T05:25:51.741Z,21.70
2018-06-06T05:28:19.928Z,21.90
2018-06-06T05:30:48.073Z,21.80
2018-06-06T05:33:16.273Z,22.10
2018-06-06T05:35:44.532Z,22.50
2018-06-06T05:38:12.701Z,23.00
2018-06-06T05:40:40.959Z,23.50
2018-06-06T05:43:09.125Z,23.90
2018-06-06T05:45:37.319Z,24.00
2018-06-06T05:48:05.489Z,24.40
2018-06-06T05:50:33.689Z,24.70
2018-06-06T05:53:01.858Z,24.40
2018-06-06T05:55:30.061Z,23.70
2018-06-06T05:57:58.358Z,23.60
2018-06-06T06:00:26.526Z,23.50
2018-06-06T06:02:54.745Z,23.60
2018-06-06T06:05:22.858Z,24.10
2018-06-06T06:07:51.038Z,24.50
2018-06-06T06:10:19.209Z,24.40
2018-06-06T06:12:47.374Z,24.50
2018-06-06T06:15:15.542Z,24.50
2018-06-06T06:17:43.702Z,24.60
2018-06-06T06:20:11.861Z,24.20
2018-06-06T06:22:40.053Z,23.80
2018-06-06T06:25:08.210Z,24.30
2018-06-06T06:27:36.383Z,24.50
2018-06-06T06:30:04.602Z,25.20
2018-06-06T06:32:32.730Z,25.50
2018-06-06T06:35:00.882Z,25.80
2018-06-06T06:37:29.069Z,26.30
2018-06-06T06:39:57.248Z,26.00
2018-06-06T06:42:25.430Z,26.30
2018-06-06T06:44:53.609Z,26.40
2018-06-06T06:47:21.830Z,26.20
2018-06-06T06:49:50.042Z,26.60
2018-06-06T06:52:18.283Z,27.00
2018-06-06T06:54:46.510Z,27.30
2018-06-06T06:57:14.757Z,27.20
2018-06-06T06:59:42.973Z,27.30
2018-06-06T07:02:11.162Z,27.40
2018-06-06T07:04:39.514Z,26.90
2018-06-06T07:07:07.704Z,27.20
2018-06-06T07:09:35.933Z,27.50
2018-06-06T07:12:04.224Z,28.10
2018-06-06T07:14:32.335Z,28.40
2018-06-06T07:17:00.524Z,28.00
2018-06-06T07:19:28.729Z,27.30
2018-06-06T07:21:56.913Z,26.90
2018-06-06T07:24:25.153Z,26.80
2018-06-06T07:26:53.369Z,27.30
2018-06-06T07:29:21.577Z,27.80
2018-06-06T07:31:49.880Z,27.10
2018-06-06T07:34:18.057Z,27.80
2018-06-06T07:39:14.339Z,28.10
2018-06-06T07:41:42.545Z,27.10
2018-06-06T07:46:38.753Z,26.30
2018-06-06T07:49:06.924Z,26.40
2018-06-06T07:51:35.109Z,26.60
2018-06-06T07:54:03.283Z,27.20
2018-06-06T07:56:31.450Z,27.30
2018-06-06T07:58:59.657Z,27.80
2018-06-06T08:01:27.834Z,27.80
2018-06-06T08:03:56.010Z,27.80
2018-06-06T08:06:24.182Z,28.10
2018-06-06T08:08:52.358Z,28.20
2018-06-06T08:11:20.506Z,28.10
2018-06-06T08:13:48.706Z,28.60
2018-06-06T08:16:16.894Z,28.40
2018-06-06T08:18:45.059Z,28.50
2018-06-06T08:21:13.229Z,28.80
2018-06-06T08:23:42.053Z,29.30
2018-06-06T08:26:10.241Z,29.90
2018-06-06T08:28:38.364Z,29.50
2018-06-06T08:31:06.556Z,29.40
2018-06-06T08:33:34.713Z,29.60
2018-06-06T08:36:02.890Z,30.20
2018-06-06T08:38:31.177Z,29.60
2018-06-06T08:40:59.358Z,28.90
2018-06-06T08:43:27.515Z,28.90
2018-06-06T08:45:55.718Z,29.40
2018-06-06T08:48:23.893Z,29.40
2018-06-06T08:50:52.249Z,29.30
2018-06-06T08:53:20.337Z,29.80
2018-06-06T08:55:48.495Z,30.50
2018-06-06T08:58:16.665Z,30.30
2018-06-06T09:00:44.973Z,30.50
2018-06-06T09:03:13.157Z,29.60
2018-06-06T09:05:41.338Z,29.20
2018-06-06T09:08:09.510Z,29.20
2018-06-06T09:10:37.801Z,29.20
2018-06-06T09:13:06.041Z,29.40
2018-06-06T09:15:34.238Z,29.80
2018-06-06T09:18:02.382Z,30.10
2018-06-06T09:20:30.637Z,30.10
2018-06-06T09:22:58.867Z,30.30
2018-06-06T09:25:27.109Z,30.50
2018-06-06T09:27:55.287Z,30.40
2018-06-06T09:30:23.516Z,30.90
2018-06-06T09:32:58.139Z,30.70
2018-06-06T09:35:26.354Z,31.50
2018-06-06T09:37:54.526Z,31.80
2018-06-06T09:40:22.697Z,30.70
2018-06-06T09:42:50.872Z,30.70
2018-06-06T09:45:19.045Z,30.80
2018-06-06T09:47:47.271Z,30.50
2018-06-06T09:50:15.498Z,30.70
2018-06-06T09:52:43.737Z,30.70
2018-06-06T09:55:11.977Z,31.10
2018-06-06T09:57:40.290Z,31.70
2018-06-06T10:00:08.536Z,32.20
2018-06-06T10:02:36.749Z,31.90
2018-06-06T10:05:05.003Z,31.50
2018-06-06T10:07:33.241Z,31.10
2018-06-06T10:10:01.470Z,30.80
2018-06-06T10:12:29.696Z,30.90
2018-06-06T10:14:57.885Z,30.90
2018-06-06T10:17:26.147Z,30.90
2018-06-06T10:19:54.394Z,31.10
2018-06-06T10:22:22.581Z,31.30
2018-06-06T10:24:50.777Z,30.90
2018-06-06T10:27:18.995Z,31.30
2018-06-06T10:29:47.185Z,31.40
2018-06-06T10:32:15.403Z,31.50
2018-06-06T10:34:43.624Z,32.20
2018-06-06T10:37:11.862Z,32.00
2018-06-06T10:39:40.073Z,32.20
2018-06-06T10:42:08.617Z,31.30
2018-06-06T10:44:36.841Z,31.10
2018-06-06T10:47:05.108Z,31.00
2018-06-06T10:49:33.300Z,30.80
2018-06-06T10:52:01.518Z,30.80
2018-06-06T10:54:29.767Z,30.20
2018-06-06T10:56:57.968Z,29.60
2018-06-06T10:59:26.217Z,29.10
2018-06-06T11:01:54.414Z,29.20
2018-06-06T11:06:50.618Z,29.30
2018-06-06T11:09:18.842Z,29.10
2018-06-06T11:11:47.038Z,28.90
2018-06-06T11:16:43.284Z,29.00
2018-06-06T11:19:11.437Z,29.00
2018-06-06T11:21:39.673Z,28.50
2018-06-06T11:24:08.774Z,28.50
2018-06-06T11:26:36.981Z,28.40
2018-06-06T11:29:05.310Z,28.60
2018-06-06T11:31:33.501Z,28.60
2018-06-06T11:34:01.709Z,28.60
2018-06-06T11:36:29.981Z,28.70
2018-06-06T11:38:58.254Z,28.70
2018-06-06T11:41:26.484Z,28.70
2018-06-06T11:43:54.714Z,28.70
2018-06-06T11:46:22.949Z,28.60
2018-06-06T11:48:51.150Z,28.10
2018-06-06T11:51:19.409Z,28.00
2018-06-06T11:53:47.514Z,28.20
2018-06-06T11:56:15.677Z,28.30
2018-06-06T11:58:43.860Z,28.30
2018-06-06T12:01:12.149Z,28.40
2018-06-06T12:03:40.310Z,28.50
2018-06-06T12:06:08.469Z,28.60
2018-06-06T12:08:36.633Z,28.90
2018-06-06T12:11:04.820Z,29.10
2018-06-06T12:13:33.008Z,29.10
2018-06-06T12:16:01.167Z,28.90
2018-06-06T12:18:29.361Z,28.60
2018-06-06T12:20:57.609Z,28.10
2018-06-06T12:23:25.778Z,28.20
2018-06-06T12:25:54.808Z,28.10
2018-06-06T12:28:22.970Z,28.00
2018-06-06T12:30:51.175Z,28.10
2018-06-06T12:33:19.376Z,28.40
2018-06-06T12:35:47.561Z,28.50
2018-06-06T12:38:15.789Z,28.00
2018-06-06T12:43:12.038Z,28.00
2018-06-06T12:45:40.344Z,27.90
2018-06-06T12:48:08.534Z,27.70
2018-06-06T12:50:36.708Z,27.60
2018-06-06T12:53:05.149Z,27.50
2018-06-06T12:55:33.322Z,27.60
2018-06-06T12:58:01.493Z,27.80
2018-06-06T13:00:29.708Z,28.00
2018-06-06T13:02:57.956Z,28.10
2018-06-06T13:05:26.130Z,28.10
2018-06-06T13:07:54.334Z,28.30
2018-06-06T13:10:22.517Z,28.20
2018-06-06T13:12:50.739Z,28.30
2018-06-06T13:15:18.914Z,28.40
2018-06-06T13:17:47.129Z,28.30
2018-06-06T13:20:15.284Z,28.30
2018-06-06T13:22:43.498Z,28.10
2018-06-06T13:25:11.702Z,28.00
2018-06-06T13:27:39.958Z,27.70
2018-06-06T13:30:08.149Z,27.40
2018-06-06T13:32:36.343Z,27.10
2018-06-06T13:35:04.654Z,26.90
2018-06-06T13:37:32.831Z,26.70
2018-06-06T13:40:01.017Z,26.50
2018-06-06T13:42:29.181Z,26.20
2018-06-06T13:44:57.398Z,25.90
2018-06-06T13:47:25.598Z,25.60
2018-06-06T13:49:53.834Z,25.30
2018-06-06T13:52:21.983Z,25.00
2018-06-06T13:54:50.157Z,24.60
2018-06-06T13:57:18.330Z,24.40
2018-06-06T13:59:46.505Z,24.10
2018-06-06T14:02:14.714Z,23.80
2018-06-06T14:04:42.960Z,23.70
2018-06-06T14:07:11.153Z,23.50
2018-06-06T14:09:39.517Z,23.50
2018-06-06T14:12:07.701Z,23.60
2018-06-06T14:14:35.909Z,23.60
2018-06-06T14:17:04.138Z,23.60
2018-06-06T14:19:32.400Z,23.70
2018-06-06T14:22:00.494Z,23.80
2018-06-06T14:24:28.658Z,23.80
2018-06-06T14:26:56.909Z,23.90
2018-06-06T14:29:25.094Z,23.90
2018-06-06T14:31:53.326Z,24.10
2018-06-06T14:34:21.522Z,24.10
2018-06-06T14:36:49.693Z,24.20
2018-06-06T14:39:17.873Z,24.40
2018-06-06T14:41:46.435Z,24.50
2018-06-06T14:44:14.601Z,24.60
2018-06-06T14:46:42.791Z,24.70
2018-06-06T14:49:11.020Z,24.70
2018-06-06T14:51:39.241Z,24.80
2018-06-06T14:54:07.493Z,24.90
2018-06-06T14:56:35.669Z,25.00
2018-06-06T14:59:03.889Z,25.00
2018-06-06T15:01:32.121Z,25.00
2018-06-06T15:04:00.371Z,25.10
2018-06-06T15:06:28.593Z,25.10
2018-06-06T15:08:56.940Z,25.10
2018-06-06T15:11:25.138Z,25.20
2018-06-06T15:13:53.517Z,25.10
2018-06-06T15:16:21.781Z,25.00
2018-06-06T15:18:50.044Z,25.00
2018-06-06T15:21:18.246Z,25.00
2018-06-06T15:23:46.485Z,25.00
2018-06-06T15:26:14.723Z,25.00
2018-06-06T15:28:42.962Z,25.00
2018-06-06T15:31:11.191Z,24.90
2018-06-06T15:33:39.484Z,24.80
2018-06-06T15:36:07.740Z,24.70
2018-06-06T15:38:35.968Z,24.60
2018-06-06T15:41:04.253Z,24.60
2018-06-06T15:43:32.506Z,24.60
2018-06-06T15:46:00.982Z,24.60
2018-06-06T15:48:29.161Z,24.60
2018-06-06T15:50:57.346Z,24.50
2018-06-06T15:53:25.550Z,24.50
2018-06-06T15:55:53.787Z,24.40
2018-06-06T15:58:22.001Z,24.20
2018-06-06T16:00:50.254Z,24.20
2018-06-06T16:03:18.403Z,24.30
2018-06-06T16:05:46.585Z,24.20
2018-06-06T16:08:14.749Z,24.00
2018-06-06T16:10:42.981Z,23.80
2018-06-06T16:13:11.135Z,23.70
2018-06-06T16:15:39.309Z,23.70
2018-06-06T16:18:07.503Z,23.80
2018-06-06T16:20:35.745Z,23.90
2018-06-06T16:23:03.953Z,23.80
2018-06-06T16:25:32.130Z,23.90
2018-06-06T16:28:00.350Z,23.80
2018-06-06T16:30:28.558Z,23.80
2018-06-06T16:32:56.762Z,23.70
2018-06-06T16:35:24.917Z,23.60
2018-06-06T16:37:53.108Z,23.50
2018-06-06T16:40:21.281Z,23.50
2018-06-06T16:42:49.649Z,23.40
2018-06-06T16:45:17.827Z,23.40
2018-06-06T16:47:46.029Z,23.60
2018-06-06T16:50:14.203Z,23.50
2018-06-06T16:52:42.368Z,23.50
2018-06-06T16:55:10.553Z,23.70
2018-06-06T16:57:38.903Z,23.80
2018-06-06T17:00:07.061Z,23.90
2018-06-06T17:02:35.286Z,23.90
2018-06-06T17:05:03.510Z,24.00
2018-06-06T17:07:31.707Z,24.20
2018-06-06T17:09:59.970Z,24.30
2018-06-06T17:12:28.128Z,24.30
2018-06-06T17:14:56.357Z,24.30
2018-06-06T17:17:24.592Z,24.30
2018-06-06T17:19:52.865Z,24.30
2018-06-06T17:22:21.025Z,24.20
2018-06-06T17:24:49.218Z,24.30
2018-06-06T17:27:17.405Z,24.30
2018-06-06T17:32:13.527Z,24.30
2018-06-06T17:34:41.687Z,24.30
2018-06-06T17:37:09.891Z,24.20
2018-06-06T17:39:38.057Z,24.20
2018-06-06T17:42:06.554Z,24.20
2018-06-06T17:44:34.718Z,24.20
2018-06-06T17:47:02.916Z,24.20
2018-06-06T17:49:31.135Z,24.20
2018-06-06T17:51:59.311Z,24.20
2018-06-06T17:54:27.486Z,24.20
2018-06-06T17:56:55.667Z,24.10
2018-06-06T17:59:23.937Z,24.10
2018-06-06T18:01:52.109Z,24.00
2018-06-06T18:04:20.363Z,24.00
2018-06-06T18:06:48.536Z,23.90
2018-06-06T18:09:16.767Z,23.90
2018-06-06T18:11:45.010Z,23.70
2018-06-06T18:14:13.237Z,23.70
2018-06-06T18:16:41.398Z,23.70
2018-06-06T18:19:09.605Z,23.60
2018-06-06T18:21:37.782Z,23.50
2018-06-06T18:24:05.941Z,23.50
2018-06-06T18:26:34.162Z,23.40
2018-06-06T18:29:02.342Z,23.40
2018-06-06T18:31:30.490Z,23.30
2018-06-06T18:33:58.687Z,23.30
2018-06-06T18:36:26.904Z,23.20
2018-06-06T18:38:55.067Z,23.10
2018-06-06T18:41:23.284Z,23.00
2018-06-06T18:43:51.422Z,22.80
2018-06-06T18:46:19.606Z,22.60
2018-06-06T18:48:47.934Z,22.50
2018-06-06T18:51:16.249Z,22.40
2018-06-06T18:53:44.488Z,22.40
2018-06-06T18:56:12.711Z,22.40
2018-06-06T18:58:40.962Z,22.30
2018-06-06T19:01:09.237Z,22.10
2018-06-06T19:03:37.425Z,22.00
2018-06-06T19:06:05.666Z,21.90
2018-06-06T19:08:33.873Z,21.80
2018-06-06T19:13:30.191Z,21.60
2018-06-06T19:15:58.477Z,21.60
2018-06-06T19:18:26.680Z,21.60
2018-06-06T19:20:54.895Z,21.60
2018-06-06T19:25:51.060Z,21.50
2018-06-06T19:28:19.240Z,21.50
2018-06-06T19:30:47.417Z,21.70
2018-06-06T19:33:15.662Z,21.90
2018-06-06T19:35:43.925Z,21.90
2018-06-06T19:38:12.203Z,21.90
2018-06-06T19:40:40.362Z,21.50
2018-06-06T19:43:08.577Z,21.50
2018-06-06T19:45:36.814Z,21.50
2018-06-06T19:48:05.193Z,21.50
2018-06-06T19:50:33.453Z,21.60
2018-06-06T19:53:01.739Z,21.80
2018-06-06T19:55:29.958Z,21.90
2018-06-06T19:57:58.177Z,21.80
2018-06-06T20:00:26.437Z,21.70
2018-06-06T20:02:54.639Z,21.70
2018-06-06T20:05:22.876Z,21.30
2018-06-06T20:07:51.085Z,21.40
2018-06-06T20:10:19.365Z,21.50
2018-06-06T20:12:47.611Z,21.40
2018-06-06T20:15:15.850Z,21.20
2018-06-06T20:17:44.078Z,21.10
2018-06-06T20:20:12.417Z,21.10
2018-06-06T20:22:41.169Z,20.90
2018-06-06T20:25:09.382Z,20.90
2018-06-06T20:27:37.709Z,20.90
2018-06-06T20:30:06.079Z,21.00
2018-06-06T20:32:34.726Z,21.00
2018-06-06T20:35:02.941Z,20.80
2018-06-06T20:37:31.224Z,20.60
2018-06-06T20:39:59.496Z,20.60
2018-06-06T20:42:28.186Z,20.70
2018-06-06T20:44:56.405Z,20.70
2018-06-06T20:52:20.497Z,20.90
2018-06-06T20:54:48.657Z,21.00
2018-06-06T20:57:16.830Z,20.90
2018-06-06T20:59:44.990Z,20.90
2018-06-06T21:02:13.143Z,20.80
2018-06-06T21:04:41.317Z,20.80
2018-06-06T21:07:09.521Z,20.90
2018-06-06T21:09:37.734Z,21.00
2018-06-06T21:12:06.198Z,21.10
2018-06-06T21:14:34.379Z,21.00
2018-06-06T21:17:02.559Z,21.10
2018-06-06T21:19:31.430Z,21.20
2018-06-06T21:21:59.601Z,21.10
2018-06-06T21:24:27.773Z,21.00
2018-06-06T21:26:55.950Z,21.00
2018-06-06T21:29:24.139Z,21.00
2018-06-06T21:31:52.310Z,21.00
2018-06-06T21:34:20.467Z,21.00
2018-06-06T21:36:48.646Z,21.00
2018-06-06T21:39:16.828Z,21.10
2018-06-06T21:44:12.954Z,21.00
2018-06-06T21:46:41.125Z,21.00
2018-06-06T21:49:09.386Z,20.90
2018-06-06T21:51:37.635Z,20.80
2018-06-06T21:54:05.974Z,20.80
2018-06-06T21:56:34.212Z,20.70
2018-06-06T21:59:02.450Z,20.70
2018-06-06T22:01:30.695Z,20.70
2018-06-06T22:03:58.938Z,20.70
2018-06-06T22:06:27.155Z,20.70
2018-06-06T22:08:55.441Z,20.60
2018-06-06T22:11:23.639Z,20.60
2018-06-06T22:13:51.877Z,20.50
2018-06-06T22:16:20.122Z,20.40
2018-06-06T22:18:48.361Z,20.40
2018-06-06T22:21:16.681Z,20.40
2018-06-06T22:23:44.882Z,20.40
2018-06-06T22:26:13.158Z,20.40
2018-06-06T22:28:41.424Z,20.40
2018-06-06T22:31:09.679Z,20.40
2018-06-06T22:33:37.933Z,20.40
2018-06-06T22:36:06.160Z,20.30
2018-06-06T22:38:34.377Z,20.20
2018-06-06T22:41:08.346Z,20.20
2018-06-06T22:43:36.619Z,20.10
2018-06-06T22:46:05.346Z,20.00
2018-06-06T22:48:33.557Z,20.00
2018-06-06T22:51:01.790Z,20.00
2018-06-06T22:53:30.054Z,20.00
2018-06-06T22:56:01.373Z,20.00
2018-06-06T22:58:29.601Z,20.10
2018-06-06T23:00:57.860Z,20.00
2018-06-06T23:03:26.028Z,20.00
2018-06-06T23:05:54.244Z,20.10
2018-06-06T23:08:22.472Z,20.00
2018-06-06T23:10:50.717Z,19.90
2018-06-06T23:13:18.982Z,19.70
2018-06-06T23:15:47.210Z,19.90
2018-06-06T23:18:15.436Z,19.80
2018-06-06T23:20:43.665Z,19.80
2018-06-06T23:23:11.899Z,19.60
2018-06-06T23:25:40.113Z,19.50
2018-06-06T23:28:08.341Z,19.40
2018-06-06T23:30:36.546Z,19.20
2018-06-06T23:33:04.801Z,19.30
2018-06-06T23:35:33.049Z,19.40
2018-06-06T23:38:01.340Z,19.50
2018-06-06T23:40:29.584Z,19.50
2018-06-06T23:42:57.874Z,19.40
2018-06-06T23:45:26.102Z,19.30
2018-06-06T23:47:54.314Z,19.40
2018-06-06T23:50:22.547Z,19.30
2018-06-06T23:52:50.747Z,19.30
2018-06-06T23:55:18.950Z,19.30
2018-06-06T23:57:47.181Z,19.20
